createdAt,value
2022-11-22T00:00:47.600Z,98943.00
2022-11-22T00:03:15.280Z,98941.41
2022-11-22T00:05:42.926Z,98935.41
2022-11-22T00:08:10.825Z,98938.63
2022-11-22T00:10:39.808Z,98939.97
2022-11-22T00:13:07.427Z,98950.75
2022-11-22T00:15:34.994Z,98943.97
2022-11-22T00:18:02.636Z,98943.19
2022-11-22T00:20:30.321Z,98946.56
2022-11-22T00:22:58.242Z,98949.56
2022-11-22T00:25:26.004Z,98941.00
2022-11-22T00:27:55.223Z,98934.41
2022-11-22T00:30:22.859Z,98929.81
2022-11-22T00:32:50.466Z,98929.81
2022-11-22T00:35:18.073Z,98931.41
2022-11-22T00:37:45.669Z,98939.19
2022-11-22T00:40:13.586Z,98941.19
2022-11-22T00:42:41.137Z,98944.19
2022-11-22T00:45:11.210Z,98943.19
2022-11-22T00:47:38.933Z,98938.63
2022-11-22T00:50:06.998Z,98937.66
2022-11-22T00:52:34.621Z,98934.00
2022-11-22T00:55:02.261Z,98932.22
2022-11-22T00:57:29.805Z,98936.22
2022-11-22T00:59:57.365Z,98928.66
2022-11-22T01:02:26.410Z,98942.59
2022-11-22T01:04:54.014Z,98946.56
2022-11-22T01:07:21.592Z,98944.59
2022-11-22T01:09:49.220Z,98955.13
2022-11-22T01:12:16.865Z,98961.31
2022-11-22T01:14:44.441Z,98952.94
2022-11-22T01:17:12.036Z,98956.13
2022-11-22T01:19:41.250Z,98951.50
2022-11-22T01:22:08.883Z,98938.56
2022-11-22T01:24:36.550Z,98938.56
2022-11-22T01:27:04.211Z,98946.78
2022-11-22T01:29:32.083Z,98944.00
2022-11-22T01:32:00.135Z,98939.63
2022-11-22T01:34:27.719Z,98926.66
2022-11-22T01:36:56.721Z,98925.47
2022-11-22T01:39:24.343Z,98930.25
2022-11-22T01:41:51.986Z,98930.44
2022-11-22T01:44:22.489Z,98917.06
2022-11-22T01:46:54.043Z,98930.19
2022-11-22T01:49:28.132Z,98940.53
2022-11-22T01:52:02.835Z,98938.16
2022-11-22T01:54:34.665Z,98931.34
2022-11-22T01:57:07.561Z,98940.91
2022-11-22T01:59:40.393Z,98935.72
2022-11-22T02:02:08.423Z,98941.44
2022-11-22T02:04:38.077Z,98939.22
2022-11-22T02:07:15.219Z,98952.78
2022-11-22T02:09:44.245Z,98947.59
2022-11-22T02:12:13.172Z,98942.78
2022-11-22T02:14:41.677Z,98949.34
2022-11-22T02:17:09.315Z,98946.53
2022-11-22T02:19:42.850Z,98956.66
2022-11-22T02:22:23.766Z,98964.81
2022-11-22T02:24:56.496Z,98958.25
2022-11-22T02:27:25.630Z,98962.00
2022-11-22T02:29:53.335Z,98958.78
2022-11-22T02:32:21.616Z,98961.56
2022-11-22T02:34:50.508Z,98962.38
2022-11-22T02:37:19.932Z,98966.63
2022-11-22T02:39:50.572Z,98970.19
2022-11-22T02:42:18.159Z,98971.97
2022-11-22T02:44:47.112Z,98969.19
2022-11-22T02:47:14.855Z,98971.34
2022-11-22T02:49:43.018Z,98973.34
2022-11-22T02:52:10.614Z,98977.88
2022-11-22T02:54:38.235Z,98971.53
2022-11-22T02:57:05.892Z,98974.91
2022-11-22T02:59:33.466Z,98976.06
2022-11-22T03:02:03.595Z,98973.06
2022-11-22T03:04:31.548Z,98971.44
2022-11-22T03:07:00.962Z,98980.81
2022-11-22T03:09:29.756Z,98980.00
2022-11-22T03:11:57.680Z,98984.16
2022-11-22T03:14:25.253Z,98992.09
2022-11-22T03:16:53.319Z,98998.44
2022-11-22T03:19:22.614Z,98986.25
2022-11-22T03:21:50.551Z,99002.00
2022-11-22T03:24:20.003Z,98999.63
2022-11-22T03:26:49.110Z,98990.25
2022-11-22T03:29:17.061Z,98995.59
2022-11-22T03:31:44.738Z,98994.41
2022-11-22T03:34:12.924Z,99000.91
2022-11-22T03:36:41.868Z,98999.31
2022-11-22T03:39:09.488Z,99000.56
2022-11-22T03:41:37.093Z,98995.94
2022-11-22T03:44:04.979Z,98968.06
2022-11-22T03:46:32.607Z,99005.63
2022-11-22T03:49:00.269Z,99005.97
2022-11-22T03:51:28.160Z,99004.38
2022-11-22T03:53:58.539Z,98988.13
2022-11-22T03:56:26.108Z,99017.13
2022-11-22T03:58:53.738Z,99013.47
2022-11-22T04:01:21.412Z,99021.78
2022-11-22T04:03:49.092Z,99023.94
2022-11-22T04:06:16.766Z,99031.34
2022-11-22T04:08:44.493Z,99033.28
2022-11-22T04:11:13.466Z,99028.31
2022-11-22T04:13:58.619Z,99028.31
2022-11-22T04:16:26.198Z,99036.59
2022-11-22T04:18:53.750Z,99031.81
2022-11-22T04:21:35.484Z,99034.22
2022-11-22T04:24:21.545Z,99031.38
2022-11-22T04:26:50.550Z,99034.50
2022-11-22T04:29:19.995Z,99022.31
2022-11-22T04:32:06.403Z,99025.72
2022-11-22T04:34:34.340Z,99033.47
2022-11-22T04:37:02.103Z,99024.00
2022-11-22T04:39:30.024Z,99032.22
2022-11-22T04:42:16.828Z,99026.97
2022-11-22T04:44:45.326Z,99032.31
2022-11-22T04:47:38.750Z,99046.22
2022-11-22T04:50:29.864Z,99039.75
2022-11-22T04:52:57.496Z,99053.69
2022-11-22T04:55:25.405Z,99045.16
2022-11-22T04:57:59.152Z,99055.84
2022-11-22T05:00:28.360Z,99048.09
2022-11-22T05:02:56.184Z,99039.03
2022-11-22T05:05:24.014Z,99011.81
2022-11-22T05:07:51.714Z,99054.16
2022-11-22T05:10:25.807Z,99052.09
2022-11-22T05:12:56.456Z,99052.50
2022-11-22T05:15:24.290Z,99049.28
2022-11-22T05:17:51.837Z,99057.81
2022-11-22T05:20:19.566Z,99059.59
2022-11-22T05:23:04.714Z,99054.09
2022-11-22T05:25:32.315Z,99059.97
2022-11-22T05:28:01.354Z,99050.16
2022-11-22T05:30:28.878Z,99054.50
2022-11-22T05:32:56.495Z,99061.28
2022-11-22T05:35:24.116Z,99063.28
2022-11-22T05:37:51.991Z,99025.16
2022-11-22T05:40:19.619Z,99064.25
2022-11-22T05:42:47.257Z,99073.38
2022-11-22T05:45:16.467Z,99064.25
2022-11-22T05:47:44.113Z,99069.41
2022-11-22T05:50:11.778Z,99061.84
2022-11-22T05:52:39.556Z,99064.84
2022-11-22T05:55:08.224Z,99066.09
2022-11-22T05:57:35.786Z,99068.16
2022-11-22T06:00:04.026Z,99066.44
2022-11-22T06:02:33.489Z,99062.09
2022-11-22T06:05:01.266Z,99066.91
2022-11-22T06:07:28.907Z,99062.38
2022-11-22T06:09:56.559Z,99061.38
2022-11-22T06:12:24.157Z,99063.22
2022-11-22T06:14:51.747Z,99054.50
2022-11-22T06:17:19.421Z,99066.09
2022-11-22T06:19:48.378Z,99066.09
2022-11-22T06:22:15.985Z,99066.09
2022-11-22T06:24:43.666Z,99068.56
2022-11-22T06:27:11.240Z,99057.97
2022-11-22T06:29:38.836Z,99057.97
2022-11-22T06:32:06.553Z,99050.81
2022-11-22T06:34:34.230Z,99051.28
2022-11-22T06:37:03.279Z,99044.09
2022-11-22T06:39:31.156Z,99047.84
2022-11-22T06:41:59.089Z,99036.44
2022-11-22T06:44:26.746Z,99045.16
2022-11-22T06:46:54.371Z,99051.41
2022-11-22T06:49:21.908Z,99054.50
2022-11-22T06:51:49.511Z,99056.91
2022-11-22T06:54:18.618Z,99058.97
2022-11-22T06:56:46.266Z,99054.63
2022-11-22T06:59:13.891Z,99056.22
2022-11-22T07:01:41.651Z,99066.00
2022-11-22T07:04:09.685Z,99052.44
2022-11-22T07:06:39.389Z,99050.50
2022-11-22T07:09:10.243Z,99054.84
2022-11-22T07:11:39.353Z,99061.91
2022-11-22T07:14:09.168Z,99047.72
2022-11-22T07:16:38.169Z,99056.28
2022-11-22T07:19:06.704Z,99060.28
2022-11-22T07:21:34.326Z,99060.81
2022-11-22T07:24:01.962Z,99066.53
2022-11-22T07:26:29.612Z,99084.00
2022-11-22T07:28:58.748Z,99085.25
2022-11-22T07:31:26.486Z,99085.84
2022-11-22T07:33:54.134Z,99091.66
2022-11-22T07:36:23.188Z,99087.28
2022-11-22T07:38:52.146Z,99086.94
2022-11-22T07:41:21.993Z,99079.63
2022-11-22T07:43:49.632Z,99083.38
2022-11-22T07:46:23.385Z,99083.81
2022-11-22T07:48:51.195Z,99077.84
2022-11-22T07:51:19.052Z,99080.22
2022-11-22T07:53:46.736Z,99077.63
2022-11-22T07:56:15.302Z,99075.06
2022-11-22T07:58:43.106Z,99077.91
2022-11-22T08:01:12.554Z,99075.50
2022-11-22T08:03:42.086Z,99078.09
2022-11-22T08:06:12.305Z,99084.88
2022-11-22T08:08:40.219Z,99084.06
2022-11-22T08:11:08.888Z,99085.13
2022-11-22T08:13:36.956Z,99089.69
2022-11-22T08:16:07.197Z,99092.31
2022-11-22T08:18:35.118Z,99096.50
2022-11-22T08:21:05.962Z,99104.09
2022-11-22T08:23:33.623Z,99110.97
2022-11-22T08:26:01.402Z,99095.06
2022-11-22T08:28:29.351Z,99102.63
2022-11-22T08:31:01.599Z,99108.78
2022-11-22T08:33:29.466Z,99091.78
2022-11-22T08:35:57.269Z,99110.41
2022-11-22T08:38:26.381Z,99108.00
2022-11-22T08:40:54.032Z,99117.78
2022-11-22T08:43:21.699Z,99118.41
2022-11-22T08:45:50.052Z,99124.03
2022-11-22T08:48:21.998Z,99126.84
2022-11-22T08:50:54.573Z,99118.94
2022-11-22T08:53:22.794Z,99125.97
2022-11-22T08:55:52.441Z,99131.72
2022-11-22T08:58:20.423Z,99128.97
2022-11-22T09:00:48.011Z,99140.28
2022-11-22T09:03:15.604Z,99136.72
2022-11-22T09:08:34.251Z,99137.00
2022-11-22T09:11:07.704Z,99139.00
2022-11-22T09:13:35.417Z,99144.97
2022-11-22T09:16:03.738Z,99147.13
2022-11-22T09:18:31.478Z,99156.94
2022-11-22T09:21:00.394Z,99163.97
2022-11-22T09:23:28.139Z,99161.41
2022-11-22T09:25:59.693Z,99169.31
2022-11-22T09:28:29.580Z,99163.34
2022-11-22T09:31:01.850Z,99166.91
2022-11-22T09:33:30.246Z,99171.75
2022-11-22T09:36:02.378Z,99163.06
2022-11-22T09:38:30.610Z,99165.00
2022-11-22T09:40:59.677Z,99164.22
2022-11-22T09:43:38.721Z,99172.78
2022-11-22T09:46:19.696Z,99167.41
2022-11-22T09:49:03.871Z,99162.16
2022-11-22T09:51:38.140Z,99167.50
2022-11-22T09:54:10.123Z,99166.72
2022-11-22T09:56:39.533Z,99163.53
2022-11-22T09:59:13.942Z,99171.25
2022-11-22T10:01:46.412Z,99163.09
2022-11-22T10:04:18.129Z,99169.47
2022-11-22T10:06:49.672Z,99166.72
2022-11-22T10:09:32.020Z,99162.16
2022-11-22T10:12:04.345Z,99168.97
2022-11-22T10:14:41.728Z,99168.13
2022-11-22T10:17:22.954Z,99173.94
2022-11-22T10:19:57.376Z,99158.81
2022-11-22T10:22:26.748Z,99166.56
2022-11-22T10:24:54.421Z,99159.38
2022-11-22T10:27:22.116Z,99160.63
2022-11-22T10:29:59.617Z,99161.72
2022-11-22T10:32:34.553Z,99159.94
2022-11-22T10:35:24.863Z,99167.16
2022-11-22T10:38:02.619Z,99170.72
2022-11-22T10:40:39.283Z,99152.84
2022-11-22T10:43:24.204Z,99166.03
2022-11-22T10:46:02.197Z,99166.03
2022-11-22T10:48:37.514Z,99164.25
2022-11-22T10:51:13.885Z,99157.03
2022-11-22T10:53:51.704Z,99166.66
2022-11-22T10:56:26.840Z,99171.03
2022-11-22T10:59:06.641Z,99170.47
2022-11-22T11:01:44.235Z,99166.47
2022-11-22T11:04:17.010Z,99151.25
2022-11-22T11:07:10.947Z,99163.19
2022-11-22T11:10:10.137Z,99153.63
2022-11-22T11:12:37.989Z,99151.59
2022-11-22T11:15:15.021Z,99156.78
2022-11-22T11:17:46.958Z,99138.09
2022-11-22T11:20:20.801Z,99144.69
2022-11-22T11:25:40.322Z,99136.97
2022-11-22T11:28:11.010Z,99138.56
2022-11-22T11:30:42.036Z,99120.97
2022-11-22T11:33:30.079Z,99133.19
2022-11-22T11:36:03.303Z,99130.06
2022-11-22T11:38:34.277Z,99133.53
2022-11-22T11:41:21.159Z,99122.22
2022-11-22T11:43:49.588Z,99124.63
2022-11-22T11:46:19.308Z,99136.97
2022-11-22T11:48:48.643Z,99134.38
2022-11-22T11:51:19.445Z,99120.06
2022-11-22T11:53:59.059Z,99121.50
2022-11-22T11:56:47.032Z,99130.81
2022-11-22T11:59:17.649Z,99131.03
2022-11-22T12:01:55.213Z,99131.03
2022-11-22T12:04:26.852Z,99124.09
2022-11-22T12:07:04.193Z,99135.81
2022-11-22T12:09:35.084Z,99131.06
2022-11-22T12:12:12.919Z,99132.97
2022-11-22T12:15:09.789Z,99123.63
2022-11-22T12:17:40.077Z,99130.78
2022-11-22T12:20:15.552Z,99130.41
2022-11-22T12:22:52.318Z,99124.84
2022-11-22T12:25:34.737Z,99132.03
2022-11-22T12:28:13.067Z,99122.63
2022-11-22T12:30:44.080Z,99130.66
2022-11-22T12:33:18.899Z,99127.66
2022-11-22T12:35:50.727Z,99120.28
2022-11-22T12:38:21.549Z,99129.44
2022-11-22T12:40:52.240Z,99125.09
2022-11-22T12:43:25.231Z,99113.75
2022-11-22T12:45:55.801Z,99115.16
2022-11-22T12:48:29.817Z,99120.19
2022-11-22T12:51:04.565Z,99107.47
2022-11-22T12:53:36.424Z,99112.84
2022-11-22T12:56:13.894Z,99103.66
2022-11-22T12:58:47.516Z,99104.88
2022-11-22T13:01:23.211Z,99107.22
2022-11-22T13:03:57.425Z,99104.28
2022-11-22T13:06:33.445Z,99108.03
2022-11-22T13:09:06.031Z,99114.88
2022-11-22T13:11:38.830Z,99114.84
2022-11-22T13:14:15.174Z,99116.66
2022-11-22T13:16:47.169Z,99114.69
2022-11-22T13:19:17.430Z,99117.09
2022-11-22T13:22:05.579Z,99108.34
2022-11-22T13:24:45.961Z,99115.72
2022-11-22T13:27:20.092Z,99115.53
2022-11-22T13:29:48.782Z,99112.94
2022-11-22T13:32:20.431Z,99113.53
2022-11-22T13:35:05.753Z,99107.34
2022-11-22T13:37:38.141Z,99113.56
2022-11-22T13:40:24.851Z,99116.78
2022-11-22T13:43:26.012Z,99111.41
2022-11-22T13:45:55.111Z,99112.00
2022-11-22T13:48:55.991Z,99119.56
2022-11-22T13:51:51.981Z,99117.78
2022-11-22T13:54:59.472Z,99104.41
2022-11-22T13:57:33.928Z,99098.66
2022-11-22T14:00:40.255Z,99095.66
2022-11-22T14:03:34.538Z,99094.84
2022-11-22T14:06:24.617Z,99102.22
2022-11-22T14:09:16.574Z,99102.78
2022-11-22T14:11:55.439Z,99106.78
2022-11-22T14:14:29.512Z,99098.00
2022-11-22T14:17:10.699Z,99103.00
2022-11-22T14:19:57.263Z,99097.63
2022-11-22T14:22:35.362Z,99110.78
2022-11-22T14:25:19.457Z,99114.00
2022-11-22T14:27:56.555Z,99112.41
2022-11-22T14:30:40.124Z,99106.41
2022-11-22T14:33:16.684Z,99115.97
2022-11-22T14:36:15.697Z,99108.38
2022-11-22T14:38:43.912Z,99119.00
2022-11-22T14:41:43.862Z,99116.59
2022-11-22T14:44:17.400Z,99122.75
2022-11-22T14:46:54.197Z,99115.78
2022-11-22T14:49:31.647Z,99113.19
2022-11-22T14:52:00.445Z,99113.00
2022-11-22T14:54:30.882Z,99121.97
2022-11-22T14:57:04.490Z,99120.97
2022-11-22T15:00:03.433Z,99122.56
2022-11-22T15:02:49.480Z,99116.78
2022-11-22T15:09:10.831Z,99125.53
2022-11-22T15:09:22.728Z,99124.56
2022-11-22T15:11:34.443Z,99124.94
2022-11-22T15:14:30.565Z,99124.97
2022-11-22T15:57:26.947Z,99135.25
2022-11-22T15:59:55.616Z,99133.28
2022-11-22T16:02:25.771Z,99129.47
2022-11-22T16:06:07.930Z,99133.47
2022-11-22T16:07:48.792Z,99122.06
2022-11-22T16:10:21.072Z,99124.88
2022-11-22T16:12:49.990Z,99129.91
2022-11-22T16:15:29.418Z,99123.88
2022-11-22T16:18:08.475Z,99129.06
2022-11-22T16:20:36.944Z,99129.84
2022-11-22T16:23:16.913Z,99090.25
2022-11-22T16:25:46.468Z,99127.47
2022-11-22T16:28:25.725Z,99126.25
2022-11-22T16:30:55.386Z,99116.31
2022-11-22T16:33:23.347Z,99124.28
2022-11-22T16:35:54.034Z,99127.47
2022-11-22T16:38:23.470Z,99127.25
2022-11-22T16:40:51.616Z,99113.91
2022-11-22T16:43:21.778Z,99125.50
2022-11-22T16:45:49.967Z,99125.06
2022-11-22T16:48:35.081Z,99125.50
2022-11-22T16:51:07.247Z,99118.28
2022-11-22T16:53:40.998Z,99125.88
2022-11-22T16:56:09.122Z,99133.84
2022-11-22T16:58:36.814Z,99135.63
2022-11-22T17:01:04.673Z,99130.88
2022-11-22T17:03:36.295Z,99125.44
2022-11-22T17:06:03.939Z,99134.66
2022-11-22T17:08:31.700Z,99132.06
2022-11-22T17:11:00.886Z,99131.44
2022-11-22T17:13:28.793Z,99133.47
2022-11-22T17:15:57.376Z,99130.88
2022-11-22T17:18:25.108Z,99137.03
2022-11-22T17:20:52.771Z,99145.00
2022-11-22T17:23:27.657Z,99162.16
2022-11-22T17:25:55.314Z,99152.59
2022-11-22T17:28:24.420Z,99142.22
2022-11-22T17:30:52.378Z,99154.19
2022-11-22T17:33:20.220Z,99147.59
2022-11-22T17:35:47.901Z,99146.38
2022-11-22T17:38:15.960Z,99138.78
2022-11-22T17:40:44.766Z,99135.38
2022-11-22T17:43:12.726Z,99111.78
2022-11-22T17:45:43.446Z,99152.59
2022-11-22T17:48:11.625Z,99152.97
2022-11-22T17:50:39.840Z,99146.63
2022-11-22T17:53:07.476Z,99143.03
2022-11-22T17:55:48.275Z,99147.41
2022-11-22T17:58:22.750Z,99145.66
2022-11-22T18:00:51.658Z,99154.63
2022-11-22T18:03:19.177Z,99141.28
2022-11-22T18:05:47.124Z,99140.25
2022-11-22T18:08:14.714Z,99149.81
2022-11-22T18:10:42.265Z,99146.84
2022-11-22T18:13:25.118Z,99156.59
2022-11-22T18:15:58.552Z,99153.03
2022-11-22T18:18:55.201Z,99155.56
2022-11-22T18:21:17.463Z,99161.38
2022-11-22T18:23:45.518Z,99162.16
2022-11-22T18:31:52.907Z,99164.63
2022-11-22T18:34:21.229Z,99167.78
2022-11-22T18:36:55.366Z,99171.75
2022-11-22T18:39:25.169Z,99162.97
2022-11-22T18:41:53.085Z,99171.19
2022-11-22T18:44:21.033Z,99176.97
2022-11-22T18:46:50.059Z,99169.81
2022-11-22T18:49:17.669Z,99178.78
2022-11-22T18:51:45.336Z,99180.81
2022-11-22T18:54:13.350Z,99177.22
2022-11-22T18:56:41.194Z,99186.78
2022-11-22T18:59:12.323Z,99186.97
2022-11-22T19:01:40.593Z,99189.38
2022-11-22T19:04:11.448Z,99161.00
2022-11-22T19:06:40.444Z,99191.59
2022-11-22T19:09:08.224Z,99190.59
2022-11-22T19:11:35.858Z,99195.41
2022-11-22T19:14:04.005Z,99196.00
2022-11-22T19:16:31.676Z,99198.00
2022-11-22T19:18:59.567Z,99200.78
2022-11-22T19:21:29.997Z,99197.00
2022-11-22T19:23:58.164Z,99201.00
2022-11-22T19:26:28.051Z,99199.44
2022-11-22T19:28:57.517Z,99195.81
2022-11-22T19:31:29.200Z,99193.03
2022-11-22T19:33:57.132Z,99195.63
2022-11-22T19:36:32.098Z,99197.22
2022-11-22T19:39:03.567Z,99197.41
2022-11-22T19:41:31.922Z,99192.19
2022-11-22T19:44:00.328Z,99193.41
2022-11-22T19:46:28.575Z,99197.19
2022-11-22T19:48:57.832Z,99193.00
2022-11-22T19:51:26.916Z,99188.03
2022-11-22T19:53:55.430Z,99196.84
2022-11-22T19:56:26.621Z,99200.03
2022-11-22T19:58:55.498Z,99199.03
2022-11-22T20:01:23.912Z,99200.44
2022-11-22T20:03:53.458Z,99203.84
2022-11-22T20:06:21.706Z,99209.84
2022-11-22T20:08:49.379Z,99198.47
2022-11-22T20:11:19.553Z,99201.03
2022-11-22T20:13:50.376Z,99206.22
2022-11-22T20:16:20.972Z,99206.81
2022-11-22T20:18:49.287Z,99211.44
2022-11-22T20:21:21.765Z,99210.88
2022-11-22T20:23:50.149Z,99205.47
2022-11-22T20:26:18.191Z,99208.28
2022-11-22T20:28:46.814Z,99206.06
2022-11-22T20:31:17.590Z,99216.25
2022-11-22T20:33:46.970Z,99202.28
2022-11-22T20:36:16.524Z,99209.88
2022-11-22T20:38:45.586Z,99216.69
2022-11-22T20:41:14.715Z,99216.31
2022-11-22T20:43:42.878Z,99223.28
2022-11-22T20:46:12.874Z,99226.72
2022-11-22T20:48:43.948Z,99224.13
2022-11-22T20:51:13.559Z,99226.91
2022-11-22T20:53:41.869Z,99228.50
2022-11-22T20:56:10.102Z,99230.13
2022-11-22T20:58:37.971Z,99222.91
2022-11-22T21:01:07.092Z,99227.53
2022-11-22T21:03:35.288Z,99234.72
2022-11-22T21:06:05.521Z,99240.69
2022-11-22T21:08:34.088Z,99235.31
2022-11-22T21:11:06.704Z,99233.28
2022-11-22T21:13:35.363Z,99228.53
2022-11-22T21:16:15.582Z,99236.31
2022-11-22T21:18:51.698Z,99238.91
2022-11-22T21:21:23.030Z,99243.34
2022-11-22T21:23:51.867Z,99246.13
2022-11-22T21:26:20.006Z,99245.50
2022-11-22T21:28:47.589Z,99258.28
2022-11-22T21:31:15.490Z,99252.31
2022-11-22T21:33:43.592Z,99255.91
2022-11-22T21:36:11.435Z,99251.69
2022-11-22T21:38:40.507Z,99263.31
2022-11-22T21:41:38.342Z,99251.31
2022-11-22T21:43:57.818Z,99257.31
2022-11-22T21:46:25.998Z,99265.09
2022-11-22T21:48:55.617Z,99252.31
2022-11-22T21:51:26.174Z,99259.09
2022-11-22T21:53:58.711Z,99262.06
2022-11-22T21:56:26.729Z,99265.47
2022-11-22T21:58:54.372Z,99273.88
2022-11-22T22:01:22.066Z,99275.88
2022-11-22T22:03:49.790Z,99273.50
2022-11-22T22:06:17.365Z,99257.69
2022-11-22T22:08:44.994Z,99276.66
2022-11-22T22:11:13.991Z,99275.88
2022-11-22T22:13:41.654Z,99275.28
2022-11-22T22:16:15.352Z,99280.28
2022-11-22T22:18:43.462Z,99276.69
2022-11-22T22:21:12.415Z,99285.28
2022-11-22T22:23:41.015Z,99285.09
2022-11-22T22:26:10.281Z,99283.13
2022-11-22T22:28:40.153Z,99287.50
2022-11-22T22:31:09.168Z,99283.13
2022-11-22T22:33:37.830Z,99295.06
2022-11-22T22:36:06.286Z,99284.50
2022-11-22T22:38:34.787Z,99283.50
2022-11-22T22:41:05.071Z,99287.91
2022-11-22T22:43:34.606Z,99289.69
2022-11-22T22:46:08.589Z,99289.69
2022-11-22T22:48:36.153Z,99286.72
2022-11-22T22:51:08.901Z,99297.28
2022-11-22T22:53:36.801Z,99296.28
2022-11-22T22:56:05.433Z,99296.28
2022-11-22T22:58:33.011Z,99291.09
2022-11-22T23:01:09.797Z,99291.53
2022-11-22T23:03:37.973Z,99306.31
2022-11-22T23:06:07.545Z,99305.94
2022-11-22T23:08:35.333Z,99296.53
2022-11-22T23:11:04.234Z,99309.50
2022-11-22T23:13:32.844Z,99305.13
2022-11-22T23:16:00.812Z,99309.50
2022-11-22T23:18:30.034Z,99278.50
2022-11-22T23:21:01.333Z,99312.53
2022-11-22T23:23:29.883Z,99314.56
2022-11-22T23:26:01.666Z,99317.72
2022-11-22T23:28:30.013Z,99324.72
2022-11-22T23:30:58.214Z,99324.53
2022-11-22T23:33:25.776Z,99313.09
2022-11-22T23:35:54.660Z,99322.72
2022-11-22T23:38:22.096Z,99313.56
2022-11-22T23:40:53.901Z,99316.72
2022-11-22T23:43:21.483Z,99323.16
2022-11-22T23:45:49.032Z,99309.94
2022-11-22T23:48:16.878Z,99313.94
2022-11-22T23:50:44.453Z,99321.13
2022-11-22T23:53:13.423Z,99314.75
2022-11-22T23:55:40.983Z,99325.13
2022-11-22T23:58:08.544Z,99338.72
